createdAt,value
2024-02-03T00:01:01.003Z,0.45
2024-02-03T00:03:28.418Z,0.40
2024-02-03T00:05:55.695Z,0.32
2024-02-03T00:08:22.884Z,0.47
2024-02-03T00:10:50.219Z,0.30
2024-02-03T00:13:17.470Z,0.20
2024-02-03T00:15:44.835Z,0.20
2024-02-03T00:18:12.223Z,0.35
2024-02-03T00:20:39.608Z,0.50
2024-02-03T00:23:06.837Z,0.50
2024-02-03T00:25:34.151Z,0.30
2024-02-03T00:28:01.776Z,0.30
2024-02-03T00:30:29.159Z,0.50
2024-02-03T00:32:56.416Z,0.20
2024-02-03T00:35:23.604Z,0.20
2024-02-03T00:37:50.804Z,0.40
2024-02-03T00:40:18.037Z,0.30
2024-02-03T00:42:45.313Z,0.38
2024-02-03T00:45:12.543Z,0.30
2024-02-03T00:47:39.828Z,0.30
2024-02-03T00:50:07.325Z,0.40
2024-02-03T00:52:34.552Z,0.38
2024-02-03T00:55:01.748Z,0.20
2024-02-03T00:57:28.991Z,0.88
2024-02-03T00:59:56.237Z,0.20
2024-02-03T01:02:23.422Z,2.08
2024-02-03T01:04:50.888Z,0.60
2024-02-03T01:07:18.123Z,0.25
2024-02-03T01:09:45.881Z,0.52
2024-02-03T01:12:13.256Z,0.40
2024-02-03T01:14:40.622Z,0.30
2024-02-03T01:17:07.903Z,0.17
2024-02-03T01:19:35.237Z,0.40
2024-02-03T01:22:02.926Z,0.30
2024-02-03T01:24:30.230Z,0.35
2024-02-03T01:26:57.517Z,0.40
2024-02-03T01:29:26.409Z,0.20
2024-02-03T01:31:55.160Z,0.30
2024-02-03T01:34:22.509Z,0.30
2024-02-03T01:36:49.923Z,0.40
2024-02-03T01:39:17.281Z,0.30
2024-02-03T01:41:44.546Z,0.30
2024-02-03T01:44:12.162Z,0.35
2024-02-03T01:46:39.548Z,0.40
2024-02-03T01:49:06.906Z,0.50
2024-02-03T01:51:35.205Z,0.40
2024-02-03T01:54:04.112Z,0.40
2024-02-03T01:56:35.730Z,0.47
2024-02-03T01:59:04.654Z,0.50
2024-02-03T02:01:32.793Z,0.52
2024-02-03T02:04:00.423Z,0.70
2024-02-03T02:06:31.022Z,0.43
2024-02-03T02:08:58.654Z,0.60
2024-02-03T02:11:26.856Z,0.50
2024-02-03T02:13:54.237Z,0.40
2024-02-03T02:16:21.632Z,0.55
2024-02-03T02:18:49.932Z,0.52
2024-02-03T02:21:17.370Z,0.43
2024-02-03T02:23:44.596Z,0.40
2024-02-03T02:26:11.933Z,0.50
2024-02-03T02:28:40.031Z,0.40
2024-02-03T02:31:07.291Z,0.30
2024-02-03T02:33:34.663Z,1.75
2024-02-03T02:36:01.935Z,0.45
2024-02-03T02:38:29.982Z,0.40
2024-02-03T02:40:57.249Z,0.30
2024-02-03T02:43:24.538Z,0.32
2024-02-03T02:45:51.853Z,0.30
2024-02-03T02:48:19.417Z,0.32
2024-02-03T02:50:46.737Z,0.22
2024-02-03T02:53:14.015Z,0.63
2024-02-03T02:55:41.295Z,0.25
2024-02-03T02:58:08.553Z,0.20
2024-02-03T03:00:35.944Z,0.30
2024-02-03T03:03:03.659Z,0.20
2024-02-03T03:05:31.041Z,0.20
2024-02-03T03:07:58.416Z,0.30
2024-02-03T03:10:25.691Z,0.30
2024-02-03T03:12:53.016Z,0.28
2024-02-03T03:15:20.858Z,0.40
2024-02-03T03:17:48.102Z,0.25
2024-02-03T03:20:15.875Z,0.22
2024-02-03T03:22:43.055Z,0.20
2024-02-03T03:25:10.342Z,0.28
2024-02-03T03:27:38.638Z,0.20
2024-02-03T03:30:06.222Z,0.28
2024-02-03T03:32:33.487Z,0.10
2024-02-03T03:35:01.525Z,0.60
2024-02-03T03:37:28.717Z,0.70
2024-02-03T03:39:56.877Z,0.30
2024-02-03T03:42:24.139Z,0.40
2024-02-03T03:44:51.842Z,0.70
2024-02-03T03:47:22.005Z,0.60
2024-02-03T03:49:49.269Z,0.50
2024-02-03T03:52:16.534Z,0.28
2024-02-03T03:54:47.165Z,0.30
2024-02-03T03:57:14.690Z,0.30
2024-02-03T03:59:41.879Z,0.30
2024-02-03T04:02:09.150Z,0.30
2024-02-03T04:04:39.730Z,0.22
2024-02-03T04:07:07.158Z,0.20
2024-02-03T04:09:34.446Z,0.22
2024-02-03T04:12:02.596Z,0.40
2024-02-03T04:14:29.869Z,0.30
2024-02-03T04:16:57.117Z,0.28
2024-02-03T04:19:24.442Z,0.40
2024-02-03T04:21:51.811Z,0.25
2024-02-03T04:24:19.134Z,0.47
2024-02-03T04:26:46.346Z,0.50
2024-02-03T04:29:13.588Z,0.40
2024-02-03T04:31:44.002Z,0.20
2024-02-03T04:34:11.467Z,0.28
2024-02-03T04:36:39.065Z,0.32
2024-02-03T04:39:06.350Z,0.40
2024-02-03T04:41:33.569Z,0.30
2024-02-03T04:44:00.768Z,0.30
2024-02-03T04:46:27.953Z,0.32
2024-02-03T04:48:55.297Z,0.47
2024-02-03T04:51:22.629Z,0.70
2024-02-03T04:53:49.839Z,0.40
2024-02-03T04:56:17.018Z,0.40
2024-02-03T04:58:44.177Z,0.40
2024-02-03T05:01:11.535Z,0.50
2024-02-03T05:03:39.139Z,0.32
2024-02-03T05:06:07.084Z,0.30
2024-02-03T05:08:37.699Z,0.40
2024-02-03T05:11:04.992Z,0.40
2024-02-03T05:13:32.190Z,0.40
2024-02-03T05:15:59.515Z,0.30
2024-02-03T05:18:26.939Z,0.35
2024-02-03T05:20:54.371Z,0.35
2024-02-03T05:23:22.049Z,0.30
2024-02-03T05:25:51.581Z,0.30
2024-02-03T05:28:20.560Z,0.40
2024-02-03T05:30:47.797Z,0.40
2024-02-03T05:33:15.626Z,0.30
2024-02-03T05:35:43.026Z,0.35
2024-02-03T05:38:10.258Z,0.52
2024-02-03T05:40:37.576Z,0.40
2024-02-03T05:43:05.063Z,0.47
2024-02-03T05:45:33.678Z,0.50
2024-02-03T05:48:00.967Z,0.45
2024-02-03T05:50:28.212Z,0.30
2024-02-03T05:52:55.406Z,0.50
2024-02-03T05:55:22.587Z,0.40
2024-02-03T05:57:56.918Z,0.50
2024-02-03T06:00:24.483Z,0.50
2024-02-03T06:02:52.040Z,0.38
2024-02-03T06:05:19.287Z,0.57
2024-02-03T06:07:46.705Z,0.30
2024-02-03T06:10:14.024Z,0.70
2024-02-03T06:12:41.321Z,0.40
2024-02-03T06:15:08.767Z,0.40
2024-02-03T06:17:36.035Z,0.32
2024-02-03T06:20:03.398Z,0.55
2024-02-03T06:22:30.697Z,0.40
2024-02-03T06:24:57.985Z,0.50
2024-02-03T06:27:25.312Z,0.50
2024-02-03T06:29:52.644Z,0.30
2024-02-03T06:32:19.860Z,0.43
2024-02-03T06:34:47.271Z,0.52
2024-02-03T06:37:14.729Z,0.60
2024-02-03T06:39:42.090Z,0.50
2024-02-03T06:42:09.954Z,0.90
2024-02-03T06:44:38.086Z,0.50
2024-02-03T06:47:05.374Z,0.70
2024-02-03T06:49:32.827Z,0.77
2024-02-03T06:52:00.321Z,0.40
2024-02-03T06:54:27.581Z,0.30
2024-02-03T06:56:55.022Z,0.45
2024-02-03T06:59:22.232Z,0.80
2024-02-03T07:01:51.389Z,0.88
2024-02-03T07:04:18.782Z,0.90
2024-02-03T07:06:46.329Z,0.85
2024-02-03T07:09:13.721Z,1.20
2024-02-03T07:11:49.586Z,1.15
2024-02-03T07:14:24.102Z,0.85
2024-02-03T07:16:51.274Z,0.85
2024-02-03T07:19:18.527Z,0.47
2024-02-03T07:21:45.839Z,0.55
2024-02-03T07:24:13.070Z,0.70
2024-02-03T07:26:40.251Z,0.60
2024-02-03T07:29:08.392Z,0.40
2024-02-03T07:31:35.576Z,0.60
2024-02-03T07:34:02.934Z,0.45
2024-02-03T07:36:30.382Z,0.57
2024-02-03T07:38:58.906Z,0.70
2024-02-03T07:41:26.129Z,0.50
2024-02-03T07:43:53.369Z,0.68
2024-02-03T07:46:21.005Z,0.60
2024-02-03T07:48:49.589Z,0.70
2024-02-03T07:51:16.950Z,0.60
2024-02-03T07:53:44.217Z,0.55
2024-02-03T07:56:11.405Z,0.75
2024-02-03T07:58:38.629Z,0.50
2024-02-03T08:01:06.105Z,1.10
2024-02-03T08:03:33.424Z,0.65
2024-02-03T08:06:02.042Z,0.88
2024-02-03T08:08:29.455Z,0.73
2024-02-03T08:10:56.749Z,0.70
2024-02-03T08:13:23.960Z,0.60
2024-02-03T08:15:51.302Z,0.77
2024-02-03T08:18:18.771Z,0.90
2024-02-03T08:20:46.132Z,0.90
2024-02-03T08:23:13.309Z,0.65
2024-02-03T08:25:40.513Z,0.75
2024-02-03T08:28:08.054Z,1.02
2024-02-03T08:30:35.282Z,0.90
2024-02-03T08:33:02.538Z,1.83
2024-02-03T08:35:29.909Z,1.25
2024-02-03T08:37:57.214Z,2.85
2024-02-03T08:40:25.015Z,1.27
2024-02-03T08:42:52.624Z,0.77
2024-02-03T08:45:20.232Z,0.85
2024-02-03T08:47:47.549Z,0.90
2024-02-03T08:50:16.430Z,0.93
2024-02-03T08:52:43.633Z,0.93
2024-02-03T08:55:11.164Z,0.65
2024-02-03T08:57:38.366Z,1.00
2024-02-03T09:00:07.169Z,0.90
2024-02-03T09:02:34.496Z,0.85
2024-02-03T09:05:01.776Z,0.73
2024-02-03T09:07:29.338Z,0.88
2024-02-03T09:09:58.311Z,0.70
2024-02-03T09:12:26.694Z,0.90
2024-02-03T09:14:53.903Z,0.80
2024-02-03T09:17:21.074Z,0.70
2024-02-03T09:19:48.636Z,0.93
2024-02-03T09:22:16.523Z,0.90
2024-02-03T09:24:43.804Z,0.60
2024-02-03T09:27:11.141Z,0.70
2024-02-03T09:29:42.191Z,0.82
2024-02-03T09:32:10.307Z,0.70
2024-02-03T09:34:37.663Z,0.80
2024-02-03T09:39:38.047Z,1.05
2024-02-03T09:42:05.630Z,0.90
2024-02-03T09:44:32.913Z,0.77
2024-02-03T09:47:00.174Z,0.75
2024-02-03T09:49:27.552Z,0.47
2024-02-03T09:51:54.893Z,0.90
2024-02-03T09:54:22.614Z,0.65
2024-02-03T09:56:49.886Z,0.60
2024-02-03T09:59:17.888Z,0.88
2024-02-03T10:01:49.096Z,1.20
2024-02-03T10:04:17.025Z,1.10
2024-02-03T10:06:46.078Z,0.90
2024-02-03T10:09:24.951Z,0.90
2024-02-03T10:11:52.738Z,1.10
2024-02-03T10:14:20.322Z,0.98
2024-02-03T10:16:49.815Z,1.10
2024-02-03T10:19:17.565Z,1.05
2024-02-03T10:21:45.072Z,1.17
2024-02-03T10:24:12.439Z,1.40
2024-02-03T10:26:39.772Z,1.20
2024-02-03T10:29:07.092Z,1.08
2024-02-03T10:31:37.837Z,1.02
2024-02-03T10:34:06.049Z,1.38
2024-02-03T10:36:33.384Z,1.30
2024-02-03T10:39:00.639Z,1.33
2024-02-03T10:41:31.156Z,1.10
2024-02-03T10:44:02.414Z,1.33
2024-02-03T10:46:31.790Z,1.40
2024-02-03T10:49:00.340Z,1.20
2024-02-03T10:51:29.880Z,1.50
2024-02-03T10:54:02.975Z,1.23
2024-02-03T10:56:31.199Z,1.40
2024-02-03T10:59:00.676Z,1.10
2024-02-03T11:01:35.284Z,0.82
2024-02-03T11:04:05.555Z,1.35
2024-02-03T11:06:34.071Z,0.95
2024-02-03T11:09:17.894Z,1.10
2024-02-03T11:11:45.986Z,1.67
2024-02-03T11:14:13.841Z,1.08
2024-02-03T11:16:41.258Z,1.27
2024-02-03T11:19:12.917Z,1.90
2024-02-03T11:21:44.112Z,1.30
2024-02-03T11:24:12.085Z,1.25
2024-02-03T11:26:39.540Z,1.10
2024-02-03T11:29:07.426Z,1.00
2024-02-03T11:31:34.734Z,1.40
2024-02-03T11:34:02.157Z,1.10
2024-02-03T11:36:30.578Z,1.00
2024-02-03T11:38:57.843Z,1.23
2024-02-03T11:41:25.566Z,0.95
2024-02-03T11:43:52.848Z,1.00
2024-02-03T11:46:20.254Z,1.17
2024-02-03T11:48:47.870Z,1.05
2024-02-03T11:51:17.000Z,1.17
2024-02-03T11:53:44.296Z,0.90
2024-02-03T11:56:11.587Z,0.88
2024-02-03T11:58:41.449Z,1.20
2024-02-03T12:01:09.886Z,0.70
2024-02-03T12:03:37.829Z,0.98
2024-02-03T12:06:06.610Z,0.82
2024-02-03T12:08:35.100Z,1.10
2024-02-03T12:11:02.338Z,0.98
2024-02-03T12:13:35.584Z,1.10
2024-02-03T12:16:03.505Z,1.00
2024-02-03T12:18:31.036Z,0.98
2024-02-03T12:20:58.327Z,1.02
2024-02-03T12:23:26.616Z,1.10
2024-02-03T12:25:54.200Z,0.95
2024-02-03T12:28:23.483Z,0.85
2024-02-03T12:30:57.950Z,0.70
2024-02-03T12:33:25.499Z,0.90
2024-02-03T12:35:53.016Z,0.90
2024-02-03T12:38:22.424Z,0.70
2024-02-03T12:40:49.873Z,0.70
2024-02-03T12:43:17.312Z,0.70
2024-02-03T12:45:44.796Z,0.80
2024-02-03T12:48:12.256Z,0.70
2024-02-03T12:50:39.510Z,0.60
2024-02-03T12:53:06.748Z,0.70
2024-02-03T12:55:33.988Z,0.45
2024-02-03T12:58:01.299Z,0.50
2024-02-03T13:00:29.711Z,0.70
2024-02-03T13:02:57.051Z,0.70
2024-02-03T13:05:24.970Z,0.52
2024-02-03T13:07:53.299Z,0.70
2024-02-03T13:10:20.637Z,0.80
2024-02-03T13:12:48.275Z,0.70
2024-02-03T13:15:16.159Z,0.80
2024-02-03T13:17:47.633Z,0.50
2024-02-03T13:20:14.865Z,0.70
2024-02-03T13:22:42.066Z,0.77
2024-02-03T13:25:09.435Z,0.80
2024-02-03T13:27:36.981Z,0.60
2024-02-03T13:30:06.085Z,0.80
2024-02-03T13:32:33.421Z,0.43
2024-02-03T13:35:00.842Z,0.70
2024-02-03T13:37:28.249Z,0.55
2024-02-03T13:39:55.560Z,0.60
2024-02-03T13:42:22.839Z,0.60
2024-02-03T13:44:50.167Z,0.73
2024-02-03T13:47:17.452Z,0.70
2024-02-03T13:49:44.784Z,0.70
2024-02-03T13:52:13.670Z,1.48
2024-02-03T13:54:41.029Z,0.70
2024-02-03T13:57:08.744Z,0.65
2024-02-03T13:59:35.917Z,1.02
2024-02-03T14:02:03.817Z,0.77
2024-02-03T14:04:32.613Z,0.90
2024-02-03T14:07:02.922Z,1.17
2024-02-03T14:09:30.303Z,0.80
2024-02-03T14:11:58.122Z,0.68
2024-02-03T14:14:28.172Z,0.82
2024-02-03T14:16:55.916Z,0.98
2024-02-03T14:19:23.276Z,1.02
2024-02-03T14:21:52.413Z,1.35
2024-02-03T14:24:19.783Z,0.98
2024-02-03T14:26:47.791Z,1.00
2024-02-03T14:29:15.804Z,1.10
2024-02-03T14:31:43.151Z,1.00
2024-02-03T14:34:10.636Z,1.10
2024-02-03T14:36:38.686Z,1.08
2024-02-03T14:39:05.977Z,0.88
2024-02-03T14:41:33.209Z,1.00
2024-02-03T14:44:00.496Z,1.10
2024-02-03T14:46:27.971Z,1.33
2024-02-03T14:48:55.336Z,0.65
2024-02-03T14:51:22.643Z,0.90
2024-02-03T14:53:51.022Z,0.82
2024-02-03T14:56:18.207Z,0.90
2024-02-03T14:58:45.420Z,1.00
2024-02-03T15:01:12.709Z,1.10
2024-02-03T15:03:41.213Z,1.42
2024-02-03T15:06:08.627Z,1.25
2024-02-03T15:08:35.901Z,1.25
2024-02-03T15:11:03.257Z,1.05
2024-02-03T15:13:30.486Z,1.30
2024-02-03T15:15:57.769Z,1.10
2024-02-03T15:18:25.090Z,2.00
2024-02-03T15:20:52.855Z,1.20
2024-02-03T15:23:20.195Z,1.40
2024-02-03T15:25:47.520Z,1.60
2024-02-03T15:28:14.841Z,1.50
2024-02-03T15:30:43.754Z,1.50
2024-02-03T15:33:13.101Z,1.48
2024-02-03T15:35:40.540Z,1.77
2024-02-03T15:38:07.771Z,1.60
2024-02-03T15:40:34.968Z,1.63
2024-02-03T15:43:02.269Z,1.50
2024-02-03T15:45:29.742Z,1.67
2024-02-03T15:47:57.043Z,1.60
2024-02-03T15:50:24.610Z,1.80
2024-02-03T15:52:51.890Z,1.85
2024-02-03T15:55:19.214Z,2.05
2024-02-03T15:57:46.627Z,2.20
2024-02-03T16:00:14.907Z,1.95
2024-02-03T16:02:42.319Z,2.40
2024-02-03T16:05:09.795Z,2.63
2024-02-03T16:07:37.438Z,2.50
2024-02-03T16:10:05.330Z,3.00
2024-02-03T16:12:33.293Z,2.78
2024-02-03T16:15:00.825Z,2.78
2024-02-03T16:17:28.159Z,3.70
2024-02-03T16:19:55.656Z,2.97
2024-02-03T16:22:23.051Z,3.08
2024-02-03T16:24:51.250Z,3.22
2024-02-03T16:27:18.626Z,3.17
2024-02-03T16:29:45.919Z,2.85
2024-02-03T16:32:13.224Z,3.28
2024-02-03T16:34:40.622Z,3.15
2024-02-03T16:37:08.050Z,2.67
2024-02-03T16:39:35.358Z,3.47
2024-02-03T16:42:03.610Z,3.38
2024-02-03T16:44:30.794Z,3.15
2024-02-03T16:46:58.029Z,3.05
2024-02-03T16:49:26.459Z,3.28
2024-02-03T16:51:54.111Z,2.67
2024-02-03T16:54:21.360Z,2.70
2024-02-03T16:56:48.658Z,2.80
2024-02-03T16:59:15.884Z,3.42
2024-02-03T17:01:49.600Z,3.45
2024-02-03T17:04:20.205Z,3.10
2024-02-03T17:06:49.379Z,3.13
2024-02-03T17:09:18.226Z,2.97
2024-02-03T17:11:45.649Z,2.80
2024-02-03T17:14:14.977Z,4.30
2024-02-03T17:16:42.469Z,3.40
2024-02-03T17:19:10.292Z,3.10
2024-02-03T17:21:37.937Z,2.80
2024-02-03T17:24:05.423Z,2.83
2024-02-03T17:26:33.070Z,2.90
2024-02-03T17:29:00.285Z,3.03
2024-02-03T17:31:27.559Z,3.40
2024-02-03T17:33:54.898Z,2.90
2024-02-03T17:36:22.293Z,2.92
2024-02-03T17:38:49.493Z,3.35
2024-02-03T17:41:19.545Z,5.50
2024-02-03T17:43:47.711Z,13.23
2024-02-03T17:46:17.777Z,4.63
2024-02-03T17:48:45.324Z,4.68
2024-02-03T17:51:13.340Z,3.50
2024-02-03T17:53:41.124Z,3.50
2024-02-03T17:56:08.800Z,3.63
2024-02-03T17:58:36.289Z,3.60
2024-02-03T18:01:03.796Z,3.88
2024-02-03T18:03:32.650Z,3.80
2024-02-03T18:06:00.092Z,3.42
2024-02-03T18:08:27.702Z,3.72
2024-02-03T18:10:55.040Z,3.22
2024-02-03T18:13:23.223Z,3.50
2024-02-03T18:15:51.037Z,3.72
2024-02-03T18:18:22.678Z,3.80
2024-02-03T18:20:50.092Z,3.70
2024-02-03T18:23:17.301Z,3.95
2024-02-03T18:25:44.517Z,3.40
2024-02-03T18:28:13.467Z,3.58
2024-02-03T18:30:40.800Z,3.20
2024-02-03T18:33:08.111Z,3.92
2024-02-03T18:35:35.434Z,3.95
2024-02-03T18:38:02.695Z,3.85
2024-02-03T18:40:29.954Z,4.38
2024-02-03T18:42:57.194Z,3.92
2024-02-03T18:45:24.702Z,4.13
2024-02-03T18:47:52.195Z,3.80
2024-02-03T18:50:19.531Z,3.85
2024-02-03T18:52:46.826Z,4.00
2024-02-03T18:55:14.033Z,3.88
2024-02-03T18:57:41.311Z,4.47
2024-02-03T19:00:08.977Z,4.18
2024-02-03T19:02:36.239Z,3.95
2024-02-03T19:05:03.723Z,4.00
2024-02-03T19:07:31.059Z,3.72
2024-02-03T19:09:58.366Z,4.30
2024-02-03T19:12:25.644Z,4.15
2024-02-03T19:14:52.951Z,4.32
2024-02-03T19:17:20.784Z,4.50
2024-02-03T19:19:48.218Z,3.90
2024-02-03T19:22:17.549Z,4.55
2024-02-03T19:24:45.078Z,4.13
2024-02-03T19:27:12.327Z,4.90
2024-02-03T19:29:39.579Z,4.45
2024-02-03T19:32:07.060Z,4.55
2024-02-03T19:34:34.654Z,3.92
2024-02-03T19:37:02.059Z,4.18
2024-02-03T19:39:29.330Z,4.45
2024-02-03T19:41:56.622Z,5.15
2024-02-03T19:44:23.791Z,5.00
2024-02-03T19:46:51.304Z,4.85
2024-02-03T19:49:19.511Z,4.68
2024-02-03T19:51:47.718Z,5.30
2024-02-03T19:54:15.057Z,5.55
2024-02-03T19:56:42.313Z,4.53
2024-02-03T19:59:09.544Z,4.78
2024-02-03T20:01:37.423Z,4.85
2024-02-03T20:04:06.093Z,4.50
2024-02-03T20:06:33.489Z,4.38
2024-02-03T20:09:00.769Z,4.57
2024-02-03T20:11:28.089Z,5.32
2024-02-03T20:13:55.425Z,5.88
2024-02-03T20:16:22.827Z,5.50
2024-02-03T20:18:50.282Z,5.10
2024-02-03T20:21:17.669Z,5.57
2024-02-03T20:23:45.084Z,5.82
2024-02-03T20:26:12.327Z,5.38
2024-02-03T20:28:40.782Z,6.10
2024-02-03T20:31:09.817Z,6.25
2024-02-03T20:33:37.342Z,6.47
2024-02-03T20:36:04.796Z,6.28
2024-02-03T20:38:34.574Z,5.68
2024-02-03T20:41:02.369Z,6.80
2024-02-03T20:43:29.784Z,6.38
2024-02-03T20:45:57.556Z,6.15
2024-02-03T20:48:25.058Z,6.15
2024-02-03T20:50:52.747Z,6.28
2024-02-03T20:53:22.319Z,6.40
2024-02-03T20:55:49.653Z,6.55
2024-02-03T20:58:17.450Z,6.00
2024-02-03T21:00:45.072Z,5.75
2024-02-03T21:03:12.655Z,6.63
2024-02-03T21:05:40.123Z,6.25
2024-02-03T21:08:09.233Z,5.90
2024-02-03T21:10:36.698Z,5.47
2024-02-03T21:13:06.136Z,6.00
2024-02-03T21:15:33.729Z,5.45
2024-02-03T21:18:01.348Z,5.78
2024-02-03T21:20:28.869Z,5.90
2024-02-03T21:22:56.327Z,6.10
2024-02-03T21:25:24.874Z,5.90
2024-02-03T21:27:55.282Z,5.40
2024-02-03T21:30:23.509Z,6.00
2024-02-03T21:32:51.362Z,5.57
2024-02-03T21:35:19.147Z,5.57
2024-02-03T21:37:46.700Z,4.95
2024-02-03T21:40:14.198Z,5.43
2024-02-03T21:42:41.460Z,4.95
2024-02-03T21:45:09.147Z,5.20
2024-02-03T21:47:36.560Z,4.65
2024-02-03T21:50:04.282Z,5.28
2024-02-03T21:52:31.870Z,5.22
2024-02-03T21:54:59.272Z,4.65
2024-02-03T21:57:26.745Z,4.45
2024-02-03T21:59:54.008Z,5.10
2024-02-03T22:02:21.290Z,4.80
2024-02-03T22:04:48.776Z,3.72
2024-02-03T22:07:17.390Z,4.03
2024-02-03T22:09:44.949Z,3.97
2024-02-03T22:12:13.644Z,4.13
2024-02-03T22:14:41.066Z,4.43
2024-02-03T22:17:08.296Z,4.95
2024-02-03T22:19:35.550Z,4.50
2024-02-03T22:22:03.885Z,4.10
2024-02-03T22:24:31.941Z,4.47
2024-02-03T22:26:59.506Z,4.82
2024-02-03T22:29:29.309Z,4.25
2024-02-03T22:31:58.583Z,4.63
2024-02-03T22:34:26.638Z,4.70
2024-02-03T22:36:54.389Z,4.63
2024-02-03T22:39:21.896Z,4.63
2024-02-03T22:41:49.985Z,4.35
2024-02-03T22:44:17.198Z,4.60
2024-02-03T22:46:44.573Z,4.20
2024-02-03T22:49:11.893Z,4.15
2024-02-03T22:51:40.525Z,4.10
2024-02-03T22:54:07.823Z,4.03
2024-02-03T22:56:35.054Z,3.92
2024-02-03T22:59:02.253Z,4.25
2024-02-03T23:01:29.530Z,4.07
2024-02-03T23:03:56.933Z,4.10
2024-02-03T23:06:24.256Z,3.63
2024-02-03T23:08:51.566Z,3.90
2024-02-03T23:11:18.962Z,3.63
2024-02-03T23:13:46.182Z,4.10
2024-02-03T23:16:13.453Z,3.88
2024-02-03T23:18:40.970Z,4.03
2024-02-03T23:21:09.151Z,3.95
2024-02-03T23:23:36.379Z,3.55
2024-02-03T23:26:03.882Z,3.58
2024-02-03T23:28:33.951Z,3.35
2024-02-03T23:31:03.054Z,3.22
2024-02-03T23:33:30.631Z,3.33
2024-02-03T23:35:57.895Z,2.92
2024-02-03T23:38:26.338Z,3.17
2024-02-03T23:40:53.605Z,2.95
2024-02-03T23:43:20.816Z,3.35
2024-02-03T23:45:48.188Z,3.28
2024-02-03T23:48:15.599Z,3.50
2024-02-03T23:50:42.857Z,3.65
2024-02-03T23:53:10.087Z,3.40
2024-02-03T23:55:37.319Z,3.33
2024-02-03T23:58:04.836Z,3.00
